Time;durP1;ratioP1;P1;durP2;ratioP2;P2;SDS_P1;SDS_P2;PMS_P1;PMS_P2;Temp;Humidity;BMP_temperature;BMP_pressure;BME280_temperature;BME280_humidity;BME280_pressure;Samples;Min_cycle;Max_cycle;Signal;HPM_P1;HPM_P2
2023/09/02 00:01:22;;;;;;;8.80;6.32;;;;;;;;;;5051064;28;20033;-76
2023/09/02 00:03:49;;;;;;;10.02;6.15;;;;;;;;;;5051196;28;20136;-77
2023/09/02 00:06:15;;;;;;;9.05;6.00;;;;;;;;;;5051258;28;20378;-77
2023/09/02 00:08:41;;;;;;;9.23;6.20;;;;;;;;;;5062255;28;20507;-77
2023/09/02 00:11:07;;;;;;;10.55;6.75;;;;;;;;;;5071273;28;20076;-76
2023/09/02 00:13:34;;;;;;;11.75;6.28;;;;;;;;;;5071823;28;20037;-76
2023/09/02 00:16:00;;;;;;;9.98;6.65;;;;;;;;;;5075148;28;20438;-76
2023/09/02 00:18:26;;;;;;;9.95;6.70;;;;;;;;;;5063144;28;20376;-76
2023/09/02 00:20:52;;;;;;;9.52;6.30;;;;;;;;;;5054112;28;20036;-76
2023/09/02 00:23:18;;;;;;;10.63;7.13;;;;;;;;;;5055132;28;20079;-76
2023/09/02 00:25:44;;;;;;;9.82;7.43;;;;;;;;;;5054728;28;20025;-76
2023/09/02 00:28:10;;;;;;;9.93;6.82;;;;;;;;;;5054634;28;20029;-76
2023/09/02 00:30:36;;;;;;;12.10;6.80;;;;;;;;;;5054753;28;20104;-76
2023/09/02 00:33:02;;;;;;;11.80;6.80;;;;;;;;;;5054344;28;20419;-76
2023/09/02 00:35:28;;;;;;;9.20;7.03;;;;;;;;;;5072601;28;20036;-76
2023/09/02 00:37:54;;;;;;;11.55;7.35;;;;;;;;;;5062603;28;20033;-76
2023/09/02 00:40:21;;;;;;;10.18;7.15;;;;;;;;;;5059314;28;20029;-76
2023/09/02 00:42:48;;;;;;;10.45;6.68;;;;;;;;;;5062326;28;20356;-76
2023/09/02 00:45:15;;;;;;;13.52;7.32;;;;;;;;;;5054364;28;20100;-77
2023/09/02 00:47:42;;;;;;;12.00;7.43;;;;;;;;;;5054626;28;20021;-76
2023/09/02 00:50:08;;;;;;;10.77;7.32;;;;;;;;;;5054283;28;20453;-76
2023/09/02 00:52:34;;;;;;;13.70;7.22;;;;;;;;;;5054249;28;20032;-77
2023/09/02 00:55:02;;;;;;;10.40;7.13;;;;;;;;;;5059625;28;20020;-77
2023/09/02 00:57:29;;;;;;;13.25;7.38;;;;;;;;;;5073926;28;20111;-77
2023/09/02 00:59:55;;;;;;;9.95;7.25;;;;;;;;;;5074332;28;20033;-76
2023/09/02 01:02:22;;;;;;;11.88;6.55;;;;;;;;;;5061269;28;20475;-77
2023/09/02 01:04:49;;;;;;;9.40;6.22;;;;;;;;;;5054010;28;20117;-76
2023/09/02 01:07:15;;;;;;;9.90;6.70;;;;;;;;;;5053810;28;20032;-76
2023/09/02 01:09:41;;;;;;;10.88;6.50;;;;;;;;;;5053614;28;20392;-76
2023/09/02 01:12:08;;;;;;;11.35;7.47;;;;;;;;;;5053889;28;20029;-76
2023/09/02 01:14:34;;;;;;;10.95;7.25;;;;;;;;;;5053879;28;20033;-76
2023/09/02 01:17:00;;;;;;;10.82;7.55;;;;;;;;;;5053416;28;20053;-77
2023/09/02 01:19:26;;;;;;;9.88;7.15;;;;;;;;;;5053880;28;20044;-76
2023/09/02 01:21:52;;;;;;;10.93;7.10;;;;;;;;;;5053598;28;20032;-76
2023/09/02 01:24:24;;;;;;;11.05;7.13;;;;;;;;;;5053825;28;20021;-76
2023/09/02 01:27:09;;;;;;;10.70;7.25;;;;;;;;;;5052676;28;20078;-77
2023/09/02 01:29:44;;;;;;;11.63;7.85;;;;;;;;;;5047108;28;20025;-76
2023/09/02 01:32:12;;;;;;;11.88;7.47;;;;;;;;;;5053565;28;20032;-76
2023/09/02 01:34:38;;;;;;;9.93;7.50;;;;;;;;;;5060823;28;20032;-76
2023/09/02 01:37:07;;;;;;;15.20;8.70;;;;;;;;;;5058816;28;20017;-76
2023/09/02 01:39:33;;;;;;;11.00;7.68;;;;;;;;;;5053337;28;20041;-77
2023/09/02 01:42:00;;;;;;;14.38;8.52;;;;;;;;;;5072732;28;20032;-76
2023/09/02 01:44:27;;;;;;;12.88;7.90;;;;;;;;;;5055460;28;20045;-76
2023/09/02 01:46:53;;;;;;;11.63;7.60;;;;;;;;;;5059747;28;20032;-76
2023/09/02 01:49:19;;;;;;;13.32;8.38;;;;;;;;;;5063244;28;20108;-76
2023/09/02 01:51:46;;;;;;;10.40;7.65;;;;;;;;;;5053160;28;20020;-76
2023/09/02 01:54:19;;;;;;;12.00;7.65;;;;;;;;;;5052860;28;20367;-76
2023/09/02 01:56:46;;;;;;;11.55;7.75;;;;;;;;;;5053132;28;20029;-76
2023/09/02 01:59:14;;;;;;;12.02;7.90;;;;;;;;;;5063697;28;20028;-76
2023/09/02 02:01:40;;;;;;;10.48;8.20;;;;;;;;;;5073021;28;20028;-76
2023/09/02 02:04:09;;;;;;;13.02;8.60;;;;;;;;;;5059388;28;20078;-76
2023/09/02 02:06:36;;;;;;;13.48;7.65;;;;;;;;;;5072775;28;20058;-76
2023/09/02 02:09:04;;;;;;;10.85;6.90;;;;;;;;;;5067699;28;20028;-76
2023/09/02 02:11:31;;;;;;;11.45;7.32;;;;;;;;;;5052555;28;20076;-77
2023/09/02 02:14:01;;;;;;;9.50;6.80;;;;;;;;;;5052985;28;20056;-77
2023/09/02 02:16:27;;;;;;;9.77;7.03;;;;;;;;;;5052641;28;20032;-77
2023/09/02 02:18:53;;;;;;;13.45;8.52;;;;;;;;;;5052334;28;20049;-77
2023/09/02 02:21:19;;;;;;;11.52;7.63;;;;;;;;;;5052530;28;20025;-77
2023/09/02 02:23:45;;;;;;;12.02;7.07;;;;;;;;;;5052313;28;20070;-77
2023/09/02 02:26:13;;;;;;;11.07;7.10;;;;;;;;;;5064833;28;20514;-77
2023/09/02 02:28:39;;;;;;;8.75;6.57;;;;;;;;;;5053413;28;20572;-77
2023/09/02 02:31:05;;;;;;;10.70;7.28;;;;;;;;;;5052255;28;20111;-77
2023/09/02 02:33:31;;;;;;;12.10;7.82;;;;;;;;;;5052367;28;20049;-77
2023/09/02 02:35:57;;;;;;;11.60;7.35;;;;;;;;;;5052563;28;20025;-77
2023/09/02 02:38:24;;;;;;;12.38;8.15;;;;;;;;;;5057243;28;20059;-77
2023/09/02 02:40:50;;;;;;;11.70;7.38;;;;;;;;;;5072227;28;20040;-77
2023/09/02 02:43:16;;;;;;;10.25;7.82;;;;;;;;;;5052893;28;20061;-77
2023/09/02 02:45:42;;;;;;;12.05;8.30;;;;;;;;;;5052560;28;20028;-77
2023/09/02 02:48:15;;;;;;;14.38;7.88;;;;;;;;;;5038407;28;20052;-77
2023/09/02 02:50:41;;;;;;;12.32;8.55;;;;;;;;;;5052193;28;20032;-77
2023/09/02 02:53:07;;;;;;;12.93;8.98;;;;;;;;;;5034364;28;20024;-77
2023/09/02 02:55:33;;;;;;;13.70;8.02;;;;;;;;;;5052410;28;20032;-77
2023/09/02 02:57:59;;;;;;;13.50;8.30;;;;;;;;;;5051939;28;20096;-77
2023/09/02 03:00:25;;;;;;;12.85;8.45;;;;;;;;;;5051568;28;20025;-77
2023/09/02 03:02:52;;;;;;;11.55;8.20;;;;;;;;;;5051639;28;20029;-77
2023/09/02 03:05:22;;;;;;;12.30;7.95;;;;;;;;;;5051725;28;20024;-77
2023/09/02 03:07:48;;;;;;;13.85;8.50;;;;;;;;;;5031894;28;20032;-77
2023/09/02 03:10:14;;;;;;;12.70;8.27;;;;;;;;;;5031990;28;20021;-77
2023/09/02 03:12:40;;;;;;;15.35;8.73;;;;;;;;;;5031813;28;20423;-78
2023/09/02 03:15:07;;;;;;;14.48;8.50;;;;;;;;;;5032020;28;20524;-77
2023/09/02 03:17:33;;;;;;;13.77;9.63;;;;;;;;;;5031624;28;20500;-77
2023/09/02 03:19:59;;;;;;;13.63;9.43;;;;;;;;;;5031630;28;20033;-77
2023/09/02 03:22:25;;;;;;;14.82;8.98;;;;;;;;;;5031907;28;20029;-77
2023/09/02 03:24:54;;;;;;;13.20;8.80;;;;;;;;;;5031627;28;20493;-78
2023/09/02 03:27:21;;;;;;;10.25;7.72;;;;;;;;;;5031550;28;20017;-78
2023/09/02 03:29:50;;;;;;;13.85;8.30;;;;;;;;;;5046315;28;20025;-77
2023/09/02 03:32:16;;;;;;;11.27;8.10;;;;;;;;;;5051354;28;20384;-77
2023/09/02 03:34:42;;;;;;;12.77;8.02;;;;;;;;;;5051239;28;20017;-77
2023/09/02 03:37:09;;;;;;;13.45;8.43;;;;;;;;;;5051133;28;20513;-77
2023/09/02 03:39:35;;;;;;;11.32;7.97;;;;;;;;;;5051371;28;20025;-77
2023/09/02 03:42:01;;;;;;;13.20;8.60;;;;;;;;;;5051503;28;20021;-77
2023/09/02 03:44:27;;;;;;;11.10;8.43;;;;;;;;;;5051321;28;20045;-77
2023/09/02 03:46:53;;;;;;;13.95;8.20;;;;;;;;;;5051310;28;20059;-77
2023/09/02 03:49:19;;;;;;;11.43;7.63;;;;;;;;;;5035486;28;20036;-77
2023/09/02 03:51:45;;;;;;;14.38;7.72;;;;;;;;;;5063764;28;20024;-77
2023/09/02 03:54:11;;;;;;;14.30;8.95;;;;;;;;;;5075642;28;20025;-77
2023/09/02 03:56:43;;;;;;;13.00;8.02;;;;;;;;;;5075333;28;20039;-77
2023/09/02 03:59:09;;;;;;;14.18;8.77;;;;;;;;;;5075287;28;20031;-77
2023/09/02 04:01:35;;;;;;;12.52;8.38;;;;;;;;;;5075323;28;20082;-77
2023/09/02 04:04:01;;;;;;;14.18;7.93;;;;;;;;;;5075191;28;20032;-77
2023/09/02 04:06:27;;;;;;;13.45;7.82;;;;;;;;;;5057333;28;20622;-77
2023/09/02 04:08:53;;;;;;;12.98;8.45;;;;;;;;;;5035371;28;20538;-77
2023/09/02 04:11:19;;;;;;;12.52;8.77;;;;;;;;;;5035160;28;20060;-77
2023/09/02 04:13:45;;;;;;;15.60;9.48;;;;;;;;;;5035349;28;20459;-77
2023/09/02 04:16:11;;;;;;;12.40;8.43;;;;;;;;;;5035052;28;20030;-77
2023/09/02 04:18:38;;;;;;;15.35;8.30;;;;;;;;;;5049091;28;20053;-77
2023/09/02 04:21:04;;;;;;;16.23;8.48;;;;;;;;;;5054706;28;20515;-77
2023/09/02 04:23:31;;;;;;;12.35;8.23;;;;;;;;;;5073143;28;20479;-77
2023/09/02 04:25:58;;;;;;;11.70;7.45;;;;;;;;;;5074881;28;20456;-77
2023/09/02 04:28:24;;;;;;;11.77;7.85;;;;;;;;;;5057589;28;20029;-77
2023/09/02 04:30:51;;;;;;;12.80;8.18;;;;;;;;;;5054458;28;20025;-77
2023/09/02 04:33:17;;;;;;;9.95;7.30;;;;;;;;;;5054693;28;20021;-77
2023/09/02 04:35:44;;;;;;;11.35;7.72;;;;;;;;;;5054707;28;20020;-77
2023/09/02 04:38:10;;;;;;;14.35;8.10;;;;;;;;;;5054215;28;20023;-77
2023/09/02 04:40:37;;;;;;;14.75;8.35;;;;;;;;;;5064600;28;20052;-77
2023/09/02 04:43:04;;;;;;;11.68;8.23;;;;;;;;;;5056666;28;20025;-77
2023/09/02 04:45:33;;;;;;;12.57;8.55;;;;;;;;;;5064838;28;20024;-77
2023/09/02 04:47:59;;;;;;;18.30;9.15;;;;;;;;;;5074078;28;20025;-77
2023/09/02 04:50:25;;;;;;;15.77;9.02;;;;;;;;;;5074318;28;20024;-77
2023/09/02 04:52:51;;;;;;;13.98;8.60;;;;;;;;;;5074253;28;20032;-77
2023/09/02 04:55:19;;;;;;;13.88;8.30;;;;;;;;;;5073803;28;20525;-77
2023/09/02 04:57:45;;;;;;;12.43;7.38;;;;;;;;;;5074746;28;20027;-77
2023/09/02 05:00:12;;;;;;;13.07;8.43;;;;;;;;;;5061293;28;20567;-77
2023/09/02 05:02:38;;;;;;;12.00;8.15;;;;;;;;;;5053951;28;20100;-77
2023/09/02 05:05:04;;;;;;;14.95;7.95;;;;;;;;;;5053931;28;20503;-77
2023/09/02 05:07:31;;;;;;;12.55;7.43;;;;;;;;;;5057617;28;20118;-77
2023/09/02 05:09:57;;;;;;;15.77;8.23;;;;;;;;;;5074039;28;20103;-77
2023/09/02 05:12:23;;;;;;;13.68;8.32;;;;;;;;;;5073506;28;20108;-77
2023/09/02 05:14:49;;;;;;;15.80;8.05;;;;;;;;;;5058633;28;20083;-77
2023/09/02 05:17:15;;;;;;;13.90;8.27;;;;;;;;;;5053105;28;20467;-78
2023/09/02 05:19:41;;;;;;;12.93;8.07;;;;;;;;;;5035635;28;20044;-77
2023/09/02 05:22:07;;;;;;;13.40;8.27;;;;;;;;;;5053668;28;20029;-78
2023/09/02 05:24:33;;;;;;;12.40;7.53;;;;;;;;;;5053557;28;20052;-77
2023/09/02 05:26:59;;;;;;;13.57;8.23;;;;;;;;;;5053576;28;20037;-77
2023/09/02 05:29:25;;;;;;;16.30;8.63;;;;;;;;;;5053301;28;20159;-76
2023/09/02 05:31:51;;;;;;;12.43;8.43;;;;;;;;;;5053288;28;20032;-77
2023/09/02 05:34:16;;;;;;;13.85;8.15;;;;;;;;;;5064626;28;20025;-77
2023/09/02 05:36:43;;;;;;;13.02;8.23;;;;;;;;;;5068352;28;20151;-77
2023/09/02 05:39:10;;;;;;;13.82;8.52;;;;;;;;;;5053083;28;20025;-77
2023/09/02 05:41:36;;;;;;;13.85;9.13;;;;;;;;;;5053605;28;20028;-77
2023/09/02 05:44:02;;;;;;;12.23;8.35;;;;;;;;;;5052950;28;20028;-77
2023/09/02 05:46:28;;;;;;;14.10;8.27;;;;;;;;;;5067309;28;20032;-78
2023/09/02 05:48:54;;;;;;;12.75;7.95;;;;;;;;;;5053333;28;20045;-77
2023/09/02 05:51:20;;;;;;;12.73;8.77;;;;;;;;;;5053059;28;20028;-77
2023/09/02 05:53:46;;;;;;;13.63;8.15;;;;;;;;;;5053032;28;20032;-77
2023/09/02 05:56:13;;;;;;;12.15;7.28;;;;;;;;;;5066041;28;20013;-77
2023/09/02 05:58:38;;;;;;;12.40;7.82;;;;;;;;;;5052871;28;20643;-77
2023/09/02 06:01:05;;;;;;;13.93;8.40;;;;;;;;;;5052570;28;20086;-77
2023/09/02 06:03:31;;;;;;;12.73;7.55;;;;;;;;;;5034915;28;20137;-77
2023/09/02 06:05:57;;;;;;;13.35;8.20;;;;;;;;;;5052041;28;20683;-77
2023/09/02 06:08:24;;;;;;;13.05;7.70;;;;;;;;;;5052606;28;20108;-77
2023/09/02 06:11:01;;;;;;;12.95;8.32;;;;;;;;;;5052453;28;20460;-77
2023/09/02 06:13:27;;;;;;;12.40;7.95;;;;;;;;;;5052453;28;20029;-78
2023/09/02 06:15:57;;;;;;;13.30;7.32;;;;;;;;;;5052351;28;21796;-75
2023/09/02 06:18:23;;;;;;;14.98;7.72;;;;;;;;;;5052292;28;20041;-75
2023/09/02 06:20:49;;;;;;;11.30;7.50;;;;;;;;;;5041733;28;20030;-75
2023/09/02 06:23:15;;;;;;;10.68;6.97;;;;;;;;;;5046661;28;20082;-75
2023/09/02 06:25:43;;;;;;;12.52;7.43;;;;;;;;;;5052078;28;20063;-75
2023/09/02 06:28:09;;;;;;;11.27;6.75;;;;;;;;;;5036261;28;20484;-75
2023/09/02 06:30:38;;;;;;;12.30;7.75;;;;;;;;;;5032135;28;20100;-75
2023/09/02 06:33:05;;;;;;;12.30;7.63;;;;;;;;;;5032240;28;20032;-75
2023/09/02 06:35:31;;;;;;;11.25;7.50;;;;;;;;;;5032295;28;20069;-75
2023/09/02 06:37:57;;;;;;;10.85;6.88;;;;;;;;;;5032262;28;20017;-75
2023/09/02 06:40:23;;;;;;;16.25;7.65;;;;;;;;;;5032310;28;20025;-75
2023/09/02 06:42:49;;;;;;;12.88;7.38;;;;;;;;;;5032108;28;20461;-75
2023/09/02 06:45:15;;;;;;;13.88;7.90;;;;;;;;;;5031982;28;20033;-76
2023/09/02 06:47:41;;;;;;;12.70;8.27;;;;;;;;;;5032230;28;20075;-75
2023/09/02 06:50:07;;;;;;;11.27;7.50;;;;;;;;;;5032206;28;20593;-75
2023/09/02 06:52:33;;;;;;;13.00;8.07;;;;;;;;;;5032037;28;20418;-76
2023/09/02 06:54:59;;;;;;;14.60;8.88;;;;;;;;;;5032059;28;20701;-75
2023/09/02 06:57:25;;;;;;;14.57;9.25;;;;;;;;;;5028120;28;20025;-75
2023/09/02 06:59:51;;;;;;;15.10;8.60;;;;;;;;;;5012161;28;20638;-76
2023/09/02 07:02:17;;;;;;;11.80;7.97;;;;;;;;;;5044342;28;20037;-76
2023/09/02 07:04:43;;;;;;;12.25;8.95;;;;;;;;;;5051602;28;20103;-76
2023/09/02 07:07:09;;;;;;;15.05;9.48;;;;;;;;;;5034393;28;20082;-76
2023/09/02 07:09:35;;;;;;;12.15;8.80;;;;;;;;;;5031703;28;20029;-76
2023/09/02 07:12:01;;;;;;;12.45;9.05;;;;;;;;;;5031721;28;20044;-76
2023/09/02 07:14:27;;;;;;;14.20;9.90;;;;;;;;;;5031726;28;20468;-76
2023/09/02 07:16:53;;;;;;;14.50;9.55;;;;;;;;;;5032122;28;20026;-76
2023/09/02 07:19:19;;;;;;;13.68;10.15;;;;;;;;;;5049960;28;20060;-76
2023/09/02 07:21:45;;;;;;;11.43;9.18;;;;;;;;;;5051420;28;20468;-76
2023/09/02 07:24:11;;;;;;;14.45;9.10;;;;;;;;;;5050676;28;20151;-76
2023/09/02 07:26:37;;;;;;;16.50;10.13;;;;;;;;;;5034091;28;20369;-76
2023/09/02 07:29:03;;;;;;;11.38;8.98;;;;;;;;;;5030623;28;20033;-76
2023/09/02 07:31:29;;;;;;;15.60;10.15;;;;;;;;;;5030823;28;20029;-76
2023/09/02 07:33:55;;;;;;;13.65;9.30;;;;;;;;;;5030239;28;20025;-76
2023/09/02 07:36:21;;;;;;;14.50;9.93;;;;;;;;;;5030656;28;20021;-76
2023/09/02 07:38:47;;;;;;;14.60;10.00;;;;;;;;;;5030837;28;20358;-76
2023/09/02 07:41:13;;;;;;;14.07;8.75;;;;;;;;;;5030896;28;20071;-76
2023/09/02 07:43:39;;;;;;;13.18;9.35;;;;;;;;;;5031156;28;20361;-76
2023/09/02 07:46:06;;;;;;;12.48;8.75;;;;;;;;;;5032792;28;20483;-77
2023/09/02 07:48:31;;;;;;;10.57;8.02;;;;;;;;;;5051469;28;20543;-76
2023/09/02 07:50:57;;;;;;;11.43;8.88;;;;;;;;;;5034739;28;20045;-77
2023/09/02 07:53:23;;;;;;;12.70;8.70;;;;;;;;;;5031286;28;20025;-77
2023/09/02 07:55:51;;;;;;;9.60;7.35;;;;;;;;;;5031103;28;20453;-76
2023/09/02 07:58:17;;;;;;;10.90;8.35;;;;;;;;;;5030819;28;20034;-77
2023/09/02 08:00:43;;;;;;;10.48;7.68;;;;;;;;;;5030661;28;20155;-77
2023/09/02 08:03:09;;;;;;;10.73;7.68;;;;;;;;;;5013105;28;20139;-77
2023/09/02 08:05:41;;;;;;;8.90;7.32;;;;;;;;;;5031197;28;20040;-77
2023/09/02 08:08:07;;;;;;;7.28;6.28;;;;;;;;;;5031068;28;20021;-77
2023/09/02 08:10:34;;;;;;;9.05;6.45;;;;;;;;;;5030962;28;20499;-77
2023/09/02 08:13:00;;;;;;;6.75;5.88;;;;;;;;;;5030944;28;20156;-77
2023/09/02 08:15:26;;;;;;;6.88;5.47;;;;;;;;;;5031051;28;20080;-76
2023/09/02 08:17:52;;;;;;;6.40;5.50;;;;;;;;;;5037431;28;20494;-77
2023/09/02 08:20:18;;;;;;;6.00;5.10;;;;;;;;;;5051014;28;20037;-77
2023/09/02 08:22:44;;;;;;;6.03;4.50;;;;;;;;;;5062114;28;20579;-78
2023/09/02 08:25:11;;;;;;;4.63;4.07;;;;;;;;;;5070904;28;20032;-77
2023/09/02 08:27:37;;;;;;;4.50;3.97;;;;;;;;;;5070948;28;20025;-77
2023/09/02 08:30:04;;;;;;;5.45;4.35;;;;;;;;;;5070792;28;20035;-77
2023/09/02 08:32:30;;;;;;;6.57;4.40;;;;;;;;;;5070826;28;20060;-77
2023/09/02 08:34:56;;;;;;;5.32;4.40;;;;;;;;;;5072089;28;20359;-77
2023/09/02 08:37:22;;;;;;;6.07;4.90;;;;;;;;;;5064249;28;20029;-77
2023/09/02 08:39:50;;;;;;;5.15;3.97;;;;;;;;;;5054262;28;20029;-77
2023/09/02 08:42:20;;;;;;;6.05;4.72;;;;;;;;;;5054763;28;20017;-77
2023/09/02 08:44:47;;;;;;;6.00;4.78;;;;;;;;;;5058511;28;20396;-77
2023/09/02 08:47:15;;;;;;;6.53;5.00;;;;;;;;;;5074334;28;20024;-77
2023/09/02 08:49:41;;;;;;;5.72;4.68;;;;;;;;;;5074308;28;20032;-77
2023/09/02 08:52:07;;;;;;;6.85;5.00;;;;;;;;;;5074177;28;20025;-77
2023/09/02 08:54:34;;;;;;;7.13;5.07;;;;;;;;;;5056180;28;20055;-77
2023/09/02 08:57:01;;;;;;;5.90;4.40;;;;;;;;;;5073726;28;20019;-77
2023/09/02 08:59:28;;;;;;;6.35;4.68;;;;;;;;;;5073778;28;20150;-77
2023/09/02 09:01:55;;;;;;;8.88;5.30;;;;;;;;;;5074027;28;20053;-77
2023/09/02 09:04:21;;;;;;;6.13;4.70;;;;;;;;;;5073683;28;20456;-77
2023/09/02 09:06:47;;;;;;;5.50;4.30;;;;;;;;;;5073803;28;20409;-77
2023/09/02 09:09:14;;;;;;;6.40;5.18;;;;;;;;;;5055563;28;20024;-77
2023/09/02 09:11:41;;;;;;;7.13;5.60;;;;;;;;;;5074010;28;20082;-77
2023/09/02 09:14:22;;;;;;;6.03;5.40;;;;;;;;;;5073917;28;20028;-77
2023/09/02 09:16:49;;;;;;;5.72;4.88;;;;;;;;;;5074115;28;20020;-77
2023/09/02 09:19:17;;;;;;;5.75;5.15;;;;;;;;;;5073278;28;20048;-77
2023/09/02 09:21:44;;;;;;;5.05;4.60;;;;;;;;;;5073829;28;20074;-77
2023/09/02 09:24:13;;;;;;;4.18;3.78;;;;;;;;;;5064494;28;20051;-77
2023/09/02 09:26:42;;;;;;;5.72;4.00;;;;;;;;;;5053854;28;20250;-77
2023/09/02 09:29:11;;;;;;;5.10;4.40;;;;;;;;;;5053358;28;20033;-77
2023/09/02 09:31:37;;;;;;;4.90;4.13;;;;;;;;;;5053685;28;20036;-77
2023/09/02 09:34:03;;;;;;;7.53;4.20;;;;;;;;;;5053262;28;20033;-77
2023/09/02 09:36:30;;;;;;;5.05;4.28;;;;;;;;;;5056750;28;20662;-77
2023/09/02 09:38:57;;;;;;;5.38;4.03;;;;;;;;;;5073376;28;20078;-77
2023/09/02 09:41:25;;;;;;;6.57;4.05;;;;;;;;;;5056043;28;20021;-77
2023/09/02 09:44:10;;;;;;;7.47;4.55;;;;;;;;;;5053256;28;20044;-77
2023/09/02 09:46:37;;;;;;;5.00;3.50;;;;;;;;;;5066157;28;20029;-77
2023/09/02 09:49:03;;;;;;;4.78;4.03;;;;;;;;;;5053470;28;20025;-77
2023/09/02 09:51:30;;;;;;;5.03;4.47;;;;;;;;;;5058050;28;20021;-77
2023/09/02 09:53:56;;;;;;;5.05;3.72;;;;;;;;;;5055010;28;20643;-77
2023/09/02 09:56:23;;;;;;;4.90;3.95;;;;;;;;;;5073432;28;20035;-77
2023/09/02 09:58:49;;;;;;;5.22;4.25;;;;;;;;;;5072727;28;20031;-77
2023/09/02 10:01:25;;;;;;;6.97;3.92;;;;;;;;;;5033257;28;20036;-77
2023/09/02 10:03:54;;;;;;;4.03;3.30;;;;;;;;;;5033381;28;20100;-77
2023/09/02 10:06:20;;;;;;;4.68;3.60;;;;;;;;;;5033399;28;20026;-77
2023/09/02 10:08:49;;;;;;;5.38;3.25;;;;;;;;;;5032971;28;20029;-77
2023/09/02 10:11:22;;;;;;;6.07;3.40;;;;;;;;;;5032628;28;20371;-77
2023/09/02 10:13:52;;;;;;;4.65;3.30;;;;;;;;;;5032871;28;20109;-77
2023/09/02 10:16:19;;;;;;;5.32;3.28;;;;;;;;;;5032859;28;20466;-77
2023/09/02 10:18:47;;;;;;;4.65;3.50;;;;;;;;;;5046350;28;20502;-77
2023/09/02 10:21:14;;;;;;;7.88;3.83;;;;;;;;;;5052533;28;20032;-77
2023/09/02 10:23:44;;;;;;;5.72;3.92;;;;;;;;;;5057587;28;20017;-77
2023/09/02 10:26:14;;;;;;;5.88;3.55;;;;;;;;;;5072185;28;20031;-77
2023/09/02 10:28:42;;;;;;;4.72;3.75;;;;;;;;;;5072693;28;20643;-79
2023/09/02 10:31:29;;;;;;;5.43;3.35;;;;;;;;;;5059808;28;20029;-77
2023/09/02 10:34:00;;;;;;;5.75;3.47;;;;;;;;;;5061212;28;20028;-77
2023/09/02 10:36:28;;;;;;;5.85;3.65;;;;;;;;;;5069808;28;20032;-76
2023/09/02 10:38:58;;;;;;;5.57;3.90;;;;;;;;;;5052256;28;20036;-77
2023/09/02 10:41:25;;;;;;;5.22;3.65;;;;;;;;;;5052081;28;20021;-77
2023/09/02 10:43:51;;;;;;;6.57;3.40;;;;;;;;;;5052361;28;20021;-77
2023/09/02 10:46:17;;;;;;;4.65;2.95;;;;;;;;;;5052041;28;20029;-77
2023/09/02 10:48:45;;;;;;;4.57;3.60;;;;;;;;;;5052006;28;20025;-77
2023/09/02 10:51:11;;;;;;;5.00;3.20;;;;;;;;;;5052049;28;20056;-77
2023/09/02 10:53:52;;;;;;;5.05;3.72;;;;;;;;;;5062355;28;20507;-77
2023/09/02 10:56:28;;;;;;;3.58;3.08;;;;;;;;;;5071754;28;20016;-78
2023/09/02 10:58:54;;;;;;;6.40;3.38;;;;;;;;;;5057786;28;20044;-78
2023/09/02 11:01:20;;;;;;;5.55;3.10;;;;;;;;;;5051620;28;20025;-77
2023/09/02 11:03:46;;;;;;;5.28;3.47;;;;;;;;;;5052402;28;20460;-77
2023/09/02 11:06:15;;;;;;;5.53;2.85;;;;;;;;;;5051612;28;20029;-77
2023/09/02 11:08:46;;;;;;;3.97;2.42;;;;;;;;;;5051935;28;20039;-77
2023/09/02 11:11:15;;;;;;;4.15;2.13;;;;;;;;;;5060086;28;20025;-77
2023/09/02 11:14:17;;;;;;;4.18;2.58;;;;;;;;;;5069575;28;20044;-77
2023/09/02 11:16:43;;;;;;;2.35;2.00;;;;;;;;;;4969996;28;20111;-77
2023/09/02 11:19:11;;;;;;;3.95;2.05;;;;;;;;;;5035239;28;20512;-77
2023/09/02 11:21:38;;;;;;;4.93;2.70;;;;;;;;;;5051190;28;20013;-77
2023/09/02 11:24:14;;;;;;;3.35;2.00;;;;;;;;;;5039123;28;20016;-77
2023/09/02 11:26:51;;;;;;;2.72;1.83;;;;;;;;;;5051617;28;20116;-77
2023/09/02 11:29:27;;;;;;;2.58;1.77;;;;;;;;;;5051200;28;20029;-77
2023/09/02 11:32:00;;;;;;;3.20;1.35;;;;;;;;;;5051372;28;20025;-77
2023/09/02 11:34:27;;;;;;;2.00;1.30;;;;;;;;;;5051231;28;20112;-77
2023/09/02 11:36:57;;;;;;;4.13;1.33;;;;;;;;;;5051415;28;20618;-77
2023/09/02 11:39:27;;;;;;;2.33;1.10;;;;;;;;;;5051735;28;20060;-77
2023/09/02 11:42:11;;;;;;;3.80;1.33;;;;;;;;;;5051396;28;20482;-77
2023/09/02 11:44:38;;;;;;;2.50;1.35;;;;;;;;;;5068103;28;20052;-77
2023/09/02 11:47:04;;;;;;;2.05;1.42;;;;;;;;;;5051038;28;20368;-77
2023/09/02 11:49:30;;;;;;;1.63;1.35;;;;;;;;;;5035049;28;20029;-78
2023/09/02 11:51:58;;;;;;;1.98;1.33;;;;;;;;;;5051409;28;20475;-78
2023/09/02 11:54:25;;;;;;;3.17;1.27;;;;;;;;;;5048001;28;20531;-77
2023/09/02 11:57:00;;;;;;;2.67;1.38;;;;;;;;;;5032347;28;20017;-77
2023/09/02 11:59:26;;;;;;;1.88;1.23;;;;;;;;;;5049827;28;20478;-77
2023/09/02 12:02:12;;;;;;;2.60;1.65;;;;;;;;;;5051065;28;20025;-77
2023/09/02 12:04:39;;;;;;;4.30;1.35;;;;;;;;;;5051170;28;20565;-78
2023/09/02 12:07:05;;;;;;;3.35;1.20;;;;;;;;;;5054202;28;20028;-78
2023/09/02 12:09:32;;;;;;;2.03;1.50;;;;;;;;;;5071406;28;20758;-78
2023/09/02 12:11:58;;;;;;;1.45;1.30;;;;;;;;;;5074678;28;20020;-77
2023/09/02 12:14:24;;;;;;;1.75;1.65;;;;;;;;;;5075176;28;20025;-77
2023/09/02 12:16:51;;;;;;;1.23;1.13;;;;;;;;;;5067947;28;20495;-78
2023/09/02 12:19:17;;;;;;;2.38;1.20;;;;;;;;;;5051739;28;20055;-77
2023/09/02 12:21:43;;;;;;;1.58;1.02;;;;;;;;;;5054704;28;20036;-77
2023/09/02 12:24:09;;;;;;;2.47;1.50;;;;;;;;;;5054738;28;20036;-77
2023/09/02 12:26:48;;;;;;;1.45;1.02;;;;;;;;;;5054808;28;20240;-77
2023/09/02 12:29:17;;;;;;;1.00;0.90;;;;;;;;;;5065666;28;20032;-78
2023/09/02 12:31:50;;;;;;;1.27;1.00;;;;;;;;;;5058383;28;20505;-78
2023/09/02 12:34:16;;;;;;;2.85;1.10;;;;;;;;;;5054766;28;20029;-78
2023/09/02 12:36:43;;;;;;;1.77;1.00;;;;;;;;;;5054645;28;20017;-78
2023/09/02 12:39:21;;;;;;;1.50;1.08;;;;;;;;;;5036686;28;20132;-77
2023/09/02 12:41:47;;;;;;;3.08;1.65;;;;;;;;;;5053976;28;20498;-78
2023/09/02 12:44:19;;;;;;;1.92;1.13;;;;;;;;;;5055876;28;20087;-78
2023/09/02 12:46:45;;;;;;;2.83;1.42;;;;;;;;;;5041800;28;20017;-78
2023/09/02 12:49:11;;;;;;;1.77;0.80;;;;;;;;;;5054275;28;20071;-77
2023/09/02 12:51:37;;;;;;;3.47;1.08;;;;;;;;;;5054415;28;20017;-78
2023/09/02 12:54:10;;;;;;;1.85;0.98;;;;;;;;;;5054697;28;20029;-78
2023/09/02 12:56:37;;;;;;;2.90;0.98;;;;;;;;;;5074371;28;20099;-77
2023/09/02 12:59:03;;;;;;;1.58;0.77;;;;;;;;;;5074125;28;20029;-78
2023/09/02 13:01:29;;;;;;;1.27;0.98;;;;;;;;;;5073991;28;20028;-78
2023/09/02 13:03:55;;;;;;;1.17;1.02;;;;;;;;;;5073903;28;20020;-78
2023/09/02 13:06:21;;;;;;;0.85;0.70;;;;;;;;;;5074099;28;20077;-77
2023/09/02 13:08:47;;;;;;;0.90;0.90;;;;;;;;;;5074375;28;20024;-77
2023/09/02 13:11:13;;;;;;;0.95;0.80;;;;;;;;;;5063108;28;20025;-77
2023/09/02 13:13:40;;;;;;;1.20;1.13;;;;;;;;;;5053863;28;20017;-78
2023/09/02 13:16:06;;;;;;;1.02;0.90;;;;;;;;;;5053502;28;20024;-78
2023/09/02 13:18:33;;;;;;;2.42;1.20;;;;;;;;;;5053766;28;20060;-77
2023/09/02 13:21:00;;;;;;;1.00;0.90;;;;;;;;;;5052832;28;20036;-78
2023/09/02 13:23:26;;;;;;;1.20;1.10;;;;;;;;;;5053449;28;20032;-77
2023/09/02 13:25:52;;;;;;;1.10;1.00;;;;;;;;;;5053536;28;20025;-78
2023/09/02 13:28:18;;;;;;;1.63;1.10;;;;;;;;;;5053753;28;20045;-77
2023/09/02 13:30:46;;;;;;;1.92;1.10;;;;;;;;;;5035409;28;20472;-77
2023/09/02 13:33:13;;;;;;;1.70;1.23;;;;;;;;;;5053789;28;20121;-76
2023/09/02 13:35:39;;;;;;;2.67;1.08;;;;;;;;;;5053199;28;20028;-77
2023/09/02 13:38:06;;;;;;;1.70;1.00;;;;;;;;;;5053188;28;20029;-78
2023/09/02 13:40:34;;;;;;;2.08;1.10;;;;;;;;;;5053765;28;20021;-78
2023/09/02 13:43:03;;;;;;;1.50;1.10;;;;;;;;;;5056942;28;20055;-78
2023/09/02 13:45:29;;;;;;;1.52;1.38;;;;;;;;;;5073180;28;20456;-79
2023/09/02 13:47:55;;;;;;;1.90;1.35;;;;;;;;;;5073073;28;20029;-77
2023/09/02 13:50:22;;;;;;;1.75;1.45;;;;;;;;;;5073357;28;20467;-77
2023/09/02 13:52:51;;;;;;;2.35;1.50;;;;;;;;;;5072803;28;20028;-77
2023/09/02 13:55:18;;;;;;;3.50;1.33;;;;;;;;;;5073072;28;20666;-77
2023/09/02 13:57:44;;;;;;;1.38;1.27;;;;;;;;;;5067517;28;20023;-77
2023/09/02 14:00:21;;;;;;;1.60;1.40;;;;;;;;;;5052695;28;20036;-77
2023/09/02 14:02:47;;;;;;;1.80;1.55;;;;;;;;;;5052816;28;20041;-78
2023/09/02 14:05:14;;;;;;;1.65;1.55;;;;;;;;;;5052673;28;20145;-77
2023/09/02 14:07:42;;;;;;;1.40;1.30;;;;;;;;;;5052606;28;20021;-76
2023/09/02 14:10:09;;;;;;;2.38;1.73;;;;;;;;;;5052610;28;20028;-77
2023/09/02 14:12:35;;;;;;;1.83;1.33;;;;;;;;;;5052544;28;20369;-76
2023/09/02 14:15:01;;;;;;;2.08;1.30;;;;;;;;;;5052578;28;20492;-76
2023/09/02 14:17:27;;;;;;;1.52;1.23;;;;;;;;;;5052465;28;20025;-77
2023/09/02 14:19:53;;;;;;;1.58;1.48;;;;;;;;;;5052873;28;20032;-76
2023/09/02 14:22:19;;;;;;;1.50;1.40;;;;;;;;;;5052343;28;20539;-76
2023/09/02 14:24:45;;;;;;;2.47;1.83;;;;;;;;;;5052305;28;20134;-76
2023/09/02 14:27:13;;;;;;;2.65;1.40;;;;;;;;;;5072204;28;20121;-77
2023/09/02 14:29:39;;;;;;;2.20;1.30;;;;;;;;;;5058329;28;20017;-77
2023/09/02 14:32:05;;;;;;;2.63;1.60;;;;;;;;;;5051950;28;20025;-77
2023/09/02 14:34:34;;;;;;;2.78;1.63;;;;;;;;;;5052034;28;20025;-77
2023/09/02 14:37:02;;;;;;;1.52;1.40;;;;;;;;;;5052150;28;20043;-77